Baltimore, Maryland
Traffic Map
Current Weather Conditions
Baltimore, Maryland
Broken Clouds
Broken Clouds
75°
Feels Like: 75°
Wind Chill: 75° Ceiling: 3200
Heat Index: 75° Visibility: 10mi
Dew Point: 67° Wind: 10mph
Humidity: 76% Direction: 70° (ENE)
Pressure: 30.16in Gusts: 0mph
Raw Report DataKBWI 050554Z 07009KT 10SM SCT022 BKN032 24/19 A3016 RMK AO2 SLP210 T02390194 10272 20233 50004
Traffic Incident Summary
Active as of:
Severity:
Category:
InformationThere was an issue retrieving the traffic information for this location. Please try a different location or try again shortly.
Advertisements
Track Severe Weather on mobile